Time;durP1;ratioP1;P1;durP2;ratioP2;P2;SDS_P1;SDS_P2;PMS_P1;PMS_P2;Temp;Humidity;BMP_temperature;BMP_pressure;BME280_temperature;BME280_humidity;BME280_pressure;Samples;Min_cycle;Max_cycle;Signal;HPM_P1;HPM_P2
2023/03/06 00:01:00;;;;;;;69.10;30.40;;;;;;;-2.63;85.32;99649.69;103738;1276;99317;-76
2023/03/06 00:03:44;;;;;;;58.80;28.10;;;;;;;-2.64;85.44;99650.79;104017;1278;102792;-76
2023/03/06 00:06:29;;;;;;;67.50;29.70;;;;;;;-2.65;85.35;99645.48;103924;1276;111091;-76
2023/03/06 00:09:14;;;;;;;62.60;29.60;;;;;;;-2.68;85.43;99647.11;104090;1275;99211;-76
2023/03/06 00:11:58;;;;;;;57.70;26.80;;;;;;;-2.69;85.53;99645.34;103903;1274;99306;-75
2023/03/06 00:14:43;;;;;;;61.50;29.40;;;;;;;-2.71;85.39;99643.39;104023;1280;99791;-76
2023/03/06 00:17:28;;;;;;;59.50;30.30;;;;;;;-2.72;85.41;99643.61;103937;1278;103312;-77
2023/03/06 00:20:13;;;;;;;59.60;30.90;;;;;;;-2.71;85.51;99644.27;103979;1279;100416;-76
2023/03/06 00:22:59;;;;;;;57.40;29.00;;;;;;;-2.71;85.36;99646.73;103734;1276;99399;-77
2023/03/06 00:25:44;;;;;;;60.80;31.90;;;;;;;-2.73;85.36;99651.20;105171;1276;99387;-76
2023/03/06 00:28:30;;;;;;;53.80;28.40;;;;;;;-2.74;85.22;99648.20;104018;1279;99883;-76
2023/03/06 00:31:15;;;;;;;58.10;29.60;;;;;;;-2.75;85.30;99649.27;103999;1278;102740;-76
2023/03/06 00:34:00;;;;;;;56.50;28.40;;;;;;;-2.76;85.41;99652.67;103710;1281;100071;-74
2023/03/06 00:36:45;;;;;;;53.10;27.10;;;;;;;-2.80;85.32;99654.58;103741;1275;99905;-75
2023/03/06 00:39:30;;;;;;;58.60;27.20;;;;;;;-2.84;85.35;99654.23;103997;1275;99357;-75
2023/03/06 00:42:17;;;;;;;60.00;27.80;;;;;;;-2.85;85.64;99654.15;103959;1276;99886;-77
2023/03/06 00:45:02;;;;;;;49.80;26.60;;;;;;;-2.86;85.57;99653.17;104264;1279;104026;-76
2023/03/06 00:47:47;;;;;;;57.30;30.40;;;;;;;-2.88;85.46;99652.27;103844;1280;100792;-76
2023/03/06 00:50:34;;;;;;;63.10;28.70;;;;;;;-2.90;85.53;99652.32;103751;1279;99459;-76
2023/03/06 00:53:19;;;;;;;62.60;28.90;;;;;;;-2.92;85.69;99651.10;103813;1276;99338;-75
2023/03/06 00:56:04;;;;;;;58.70;28.40;;;;;;;-2.93;85.90;99647.32;103780;1277;99866;-76
2023/03/06 00:58:48;;;;;;;56.50;28.30;;;;;;;-2.93;86.07;99645.02;103952;1280;103530;-76
2023/03/06 01:01:33;;;;;;;64.90;29.60;;;;;;;-2.93;86.21;99647.79;103958;1277;100579;-77
2023/03/06 01:04:18;;;;;;;52.00;25.70;;;;;;;-2.89;86.34;99646.11;103918;1277;99275;-75
2023/03/06 01:07:03;;;;;;;48.70;24.50;;;;;;;-2.88;86.36;99641.66;103737;1275;99867;-76
2023/03/06 01:09:49;;;;;;;50.00;23.90;;;;;;;-2.90;86.35;99639.33;104161;1276;99404;-78
2023/03/06 01:12:34;;;;;;;49.70;24.30;;;;;;;-2.91;86.42;99635.05;103908;1275;102772;-76
2023/03/06 01:15:19;;;;;;;53.10;24.60;;;;;;;-2.92;86.59;99633.42;104004;1276;99928;-76
2023/03/06 01:18:05;;;;;;;54.30;24.80;;;;;;;-2.93;86.61;99632.07;103994;1276;99456;-77
2023/03/06 01:20:49;;;;;;;54.30;23.20;;;;;;;-2.92;86.70;99634.34;104001;1279;99296;-75
2023/03/06 01:23:34;;;;;;;71.20;26.90;;;;;;;-2.93;86.68;99631.73;103671;1277;99872;-76
2023/03/06 01:26:19;;;;;;;52.70;26.10;;;;;;;-2.93;86.73;99628.77;103870;1276;103953;-76
2023/03/06 01:29:05;;;;;;;65.10;31.60;;;;;;;-2.93;86.89;99629.83;103915;1279;100462;-76
2023/03/06 01:31:50;;;;;;;53.70;24.80;;;;;;;-2.95;86.92;99629.13;103817;1275;99284;-75
2023/03/06 01:34:34;;;;;;;55.30;25.50;;;;;;;-2.99;86.88;99628.09;103926;1279;99255;-76
2023/03/06 01:37:19;;;;;;;55.00;29.10;;;;;;;-2.98;87.14;99630.44;103888;1275;99335;-77
2023/03/06 01:40:06;;;;;;;51.60;24.80;;;;;;;-2.97;87.19;99626.14;103991;1279;103204;-76
2023/03/06 01:42:51;;;;;;;59.00;27.50;;;;;;;-2.96;87.15;99627.68;103944;1277;99463;-75
2023/03/06 01:45:36;;;;;;;48.30;23.90;;;;;;;-2.95;87.22;99627.38;103760;1292;99441;-75
2023/03/06 01:48:23;;;;;;;48.30;24.30;;;;;;;-2.95;87.24;99624.75;103861;1275;99329;-75
2023/03/06 01:51:09;;;;;;;51.20;23.70;;;;;;;-2.95;87.14;99623.39;104696;1277;99800;-75
2023/03/06 01:53:56;;;;;;;46.00;22.30;;;;;;;-2.97;87.08;99621.23;103796;1282;102836;-75
2023/03/06 01:56:44;;;;;;;51.10;23.50;;;;;;;-2.99;87.12;99624.88;103970;1277;100273;-74
2023/03/06 01:59:34;;;;;;;46.30;24.10;;;;;;;-2.98;87.16;99618.40;103745;1274;99395;-76
2023/03/06 02:02:19;;;;;;;61.20;26.60;;;;;;;-2.97;87.24;99619.48;103985;1277;99831;-75
2023/03/06 02:05:06;;;;;;;46.20;24.40;;;;;;;-2.96;87.13;99619.11;103965;1277;99275;-76
2023/03/06 02:07:53;;;;;;;47.60;24.90;;;;;;;-2.97;86.98;99621.64;103977;1279;104034;-75
2023/03/06 02:10:41;;;;;;;60.90;30.60;;;;;;;-2.99;87.08;99622.28;104448;1276;100966;-75
2023/03/06 02:13:26;;;;;;;55.80;30.20;;;;;;;-2.99;87.19;99623.20;103839;1275;99339;-76
2023/03/06 02:16:12;;;;;;;51.40;28.50;;;;;;;-2.98;87.27;99617.00;103934;1279;99447;-75
2023/03/06 02:19:00;;;;;;;54.20;25.40;;;;;;;-2.99;87.14;99614.45;106360;1277;98464;-75
2023/03/06 02:21:45;;;;;;;58.80;24.80;;;;;;;-2.99;87.25;99613.05;103732;1277;102681;-76
2023/03/06 02:24:39;;;;;;;50.30;24.00;;;;;;;-2.99;87.12;99614.31;103976;1277;99774;-76
2023/03/06 02:27:25;;;;;;;47.40;24.30;;;;;;;-3.02;86.97;99615.23;103988;1274;99147;-77
2023/03/06 02:30:15;;;;;;;50.20;23.10;;;;;;;-3.02;87.05;99615.02;103784;1274;99369;-75
2023/03/06 02:33:00;;;;;;;50.90;23.30;;;;;;;-3.02;86.92;99615.40;103979;1280;99384;-76
2023/03/06 02:36:08;;;;;;;50.00;23.80;;;;;;;-3.01;86.87;99613.72;103761;1277;102691;-75
2023/03/06 02:38:53;;;;;;;51.60;24.60;;;;;;;-3.03;86.86;99612.87;103990;1279;100429;-76
2023/03/06 02:41:39;;;;;;;46.80;23.80;;;;;;;-3.05;86.98;99608.83;104032;1277;99450;-77
2023/03/06 02:44:27;;;;;;;46.20;22.90;;;;;;;-3.07;86.95;99609.02;103769;1277;99392;-75
2023/03/06 02:47:12;;;;;;;46.80;23.50;;;;;;;-3.08;86.92;99609.80;104021;1279;99330;-77
2023/03/06 02:49:56;;;;;;;49.50;23.10;;;;;;;-3.08;87.09;99606.66;103961;1278;102728;-76
2023/03/06 02:52:41;;;;;;;50.70;24.70;;;;;;;-3.07;86.95;99606.77;103829;1280;99994;-75
2023/03/06 02:55:26;;;;;;;50.60;24.10;;;;;;;-3.09;86.90;99604.44;103987;1280;99370;-76
2023/03/06 02:58:12;;;;;;;47.80;23.50;;;;;;;-3.10;86.89;99604.02;103901;1276;117010;-75
2023/03/06 03:00:57;;;;;;;48.60;24.80;;;;;;;-3.12;86.69;99600.14;103856;1276;101080;-76
2023/03/06 03:03:41;;;;;;;49.40;24.50;;;;;;;-3.12;86.79;99602.39;104007;1276;102813;-76
2023/03/06 03:06:26;;;;;;;53.90;25.20;;;;;;;-3.13;86.90;99600.05;103758;1275;99263;-77
2023/03/06 03:09:11;;;;;;;44.20;22.30;;;;;;;-3.13;86.75;99602.86;103796;1282;99400;-76
2023/03/06 03:11:56;;;;;;;52.10;24.60;;;;;;;-3.14;86.62;99601.30;104024;1279;99466;-76
2023/03/06 03:14:41;;;;;;;49.20;24.70;;;;;;;-3.12;86.62;99600.33;103811;1279;99320;-75
2023/03/06 03:17:27;;;;;;;48.80;22.90;;;;;;;-3.12;86.42;99601.13;103823;1280;103952;-76
2023/03/06 03:20:16;;;;;;;48.50;25.40;;;;;;;-3.12;86.27;99598.43;104283;1277;100452;-77
2023/03/06 03:23:01;;;;;;;54.40;23.90;;;;;;;-3.13;86.30;99595.14;103821;1279;99805;-76
2023/03/06 03:25:46;;;;;;;51.60;25.10;;;;;;;-3.14;86.09;99594.53;105149;1277;99284;-76
2023/03/06 03:28:31;;;;;;;49.00;23.10;;;;;;;-3.16;86.04;99594.70;103869;1277;101089;-74
2023/03/06 03:31:16;;;;;;;50.10;24.70;;;;;;;-3.17;86.05;99598.09;103711;1276;102689;-76
2023/03/06 03:34:01;;;;;;;53.50;23.80;;;;;;;-3.17;86.01;99597.02;104000;1277;99357;-76
2023/03/06 03:36:46;;;;;;;54.10;25.90;;;;;;;-3.15;86.00;99597.77;103971;1279;99461;-76
2023/03/06 03:39:32;;;;;;;52.50;25.00;;;;;;;-3.15;86.05;99598.11;104004;1280;99366;-76
2023/03/06 03:42:17;;;;;;;48.30;25.90;;;;;;;-3.16;85.93;99595.73;103818;1279;99543;-77
2023/03/06 03:45:02;;;;;;;52.80;26.00;;;;;;;-3.17;85.82;99594.92;103733;1282;104445;-77
2023/03/06 03:47:47;;;;;;;49.10;23.40;;;;;;;-3.18;85.65;99595.57;103737;1276;100379;-75
2023/03/06 03:50:33;;;;;;;54.00;24.70;;;;;;;-3.19;85.71;99592.00;103939;1276;100631;-76
2023/03/06 03:53:18;;;;;;;58.30;26.60;;;;;;;-3.20;85.71;99594.17;104224;1277;99544;-76
2023/03/06 03:56:04;;;;;;;48.60;23.90;;;;;;;-3.22;85.50;99592.70;103803;1278;99899;-76
2023/03/06 03:58:50;;;;;;;53.60;26.00;;;;;;;-3.22;85.44;99589.60;103814;1282;103931;-75
2023/03/06 04:01:35;;;;;;;48.30;24.10;;;;;;;-3.23;85.16;99584.96;104033;1279;99380;-75
2023/03/06 04:04:21;;;;;;;50.50;24.50;;;;;;;-3.25;84.95;99588.44;103782;1277;99450;-78
2023/03/06 04:07:08;;;;;;;50.80;25.30;;;;;;;-3.25;84.90;99584.65;103912;1274;99719;-77
2023/03/06 04:09:54;;;;;;;53.10;24.40;;;;;;;-3.28;84.85;99585.00;104826;1276;100424;-76
2023/03/06 04:12:38;;;;;;;59.50;26.00;;;;;;;-3.30;84.75;99582.54;103851;1277;102706;-75
2023/03/06 04:15:23;;;;;;;54.10;25.40;;;;;;;-3.32;84.58;99578.73;103958;1277;100207;-75
2023/03/06 04:18:09;;;;;;;52.80;25.60;;;;;;;-3.34;84.37;99580.80;103983;1274;99925;-78
2023/03/06 04:20:54;;;;;;;50.40;26.60;;;;;;;-3.36;84.20;99581.65;103984;1279;99483;-76
2023/03/06 04:23:39;;;;;;;54.10;24.90;;;;;;;-3.38;84.23;99579.39;103972;1276;100507;-76
2023/03/06 04:26:24;;;;;;;57.40;27.50;;;;;;;-3.40;84.22;99577.31;103886;1277;103602;-78
2023/03/06 04:29:09;;;;;;;55.30;25.80;;;;;;;-3.42;84.24;99580.25;103918;1274;99322;-77
2023/03/06 04:31:54;;;;;;;55.10;26.50;;;;;;;-3.44;84.17;99579.04;103904;1278;99402;-76
2023/03/06 04:34:40;;;;;;;59.40;27.30;;;;;;;-3.46;84.20;99574.14;103853;1276;99554;-75
2023/03/06 04:37:25;;;;;;;54.40;26.40;;;;;;;-3.47;84.11;99573.37;103737;1279;102929;-76
2023/03/06 04:40:21;;;;;;;56.00;27.70;;;;;;;-3.49;84.18;99572.80;103743;1279;103990;-75
2023/03/06 04:43:05;;;;;;;54.20;26.20;;;;;;;-3.50;84.24;99567.30;103932;1277;100143;-76
2023/03/06 04:45:50;;;;;;;50.50;26.40;;;;;;;-3.50;84.16;99568.89;103973;1277;99352;-75
2023/03/06 04:48:35;;;;;;;57.60;27.60;;;;;;;-3.52;84.11;99564.64;104047;1277;100605;-75
2023/03/06 04:51:19;;;;;;;54.00;24.80;;;;;;;-3.53;84.10;99560.77;103921;1279;99322;-75
2023/03/06 04:54:04;;;;;;;58.60;26.80;;;;;;;-3.55;83.97;99557.77;103986;1277;102783;-76
2023/03/06 04:56:49;;;;;;;58.80;25.60;;;;;;;-3.57;83.65;99558.47;103993;1276;100427;-74
2023/03/06 04:59:34;;;;;;;51.30;25.90;;;;;;;-3.60;83.60;99553.12;103961;1274;99353;-76
2023/03/06 05:02:19;;;;;;;48.00;24.80;;;;;;;-3.64;83.23;99552.73;103941;1279;100538;-75
2023/03/06 05:05:04;;;;;;;47.50;23.60;;;;;;;-3.67;83.03;99554.93;103926;1276;99803;-76
2023/03/06 05:07:49;;;;;;;51.40;26.30;;;;;;;-3.71;83.07;99555.38;104033;1274;102784;-75
2023/03/06 05:10:33;;;;;;;49.60;26.40;;;;;;;-3.74;83.32;99556.02;104225;1277;99413;-77
2023/03/06 05:13:18;;;;;;;50.70;26.40;;;;;;;-3.75;83.33;99557.00;103919;1277;99538;-76
2023/03/06 05:16:04;;;;;;;51.70;26.40;;;;;;;-3.77;83.27;99555.92;103957;1274;100708;-76
2023/03/06 05:18:49;;;;;;;59.70;26.80;;;;;;;-3.80;83.16;99555.48;104021;1279;99327;-75
2023/03/06 05:21:35;;;;;;;49.70;25.70;;;;;;;-3.84;83.24;99553.47;103962;1278;102743;-76
2023/03/06 05:24:19;;;;;;;52.90;27.10;;;;;;;-3.88;83.23;99549.62;104042;1274;100496;-76
2023/03/06 05:27:04;;;;;;;52.80;25.10;;;;;;;-3.89;83.39;99550.40;103853;1279;99775;-75
2023/03/06 05:29:49;;;;;;;53.60;26.60;;;;;;;-3.89;83.31;99549.05;103967;1279;99355;-76
2023/03/06 05:32:34;;;;;;;52.30;25.20;;;;;;;-3.91;83.26;99550.02;103750;1279;99780;-76
2023/03/06 05:35:21;;;;;;;55.80;27.90;;;;;;;-3.92;83.22;99553.40;103990;1274;103675;-78
2023/03/06 05:38:06;;;;;;;55.00;25.90;;;;;;;-3.93;83.19;99558.70;103947;1274;100431;-77
2023/03/06 05:40:51;;;;;;;54.30;24.80;;;;;;;-3.94;83.22;99558.46;103839;1275;99316;-76
2023/03/06 05:43:35;;;;;;;52.70;27.00;;;;;;;-3.95;83.52;99556.95;104022;1279;99249;-77
2023/03/06 05:46:20;;;;;;;58.20;29.30;;;;;;;-3.93;83.89;99560.15;103946;1279;99882;-76
2023/03/06 05:49:05;;;;;;;59.80;29.30;;;;;;;-3.92;84.12;99560.89;104021;1279;104046;-76
2023/03/06 05:51:50;;;;;;;55.40;26.80;;;;;;;-3.91;84.19;99562.75;104059;1279;101066;-76
2023/03/06 05:54:36;;;;;;;54.00;26.00;;;;;;;-3.89;84.28;99565.05;103996;1274;100553;-76
2023/03/06 05:57:22;;;;;;;55.20;25.00;;;;;;;-3.88;84.31;99563.58;105299;1278;100594;-76
2023/03/06 06:00:08;;;;;;;61.10;26.80;;;;;;;-3.87;84.30;99560.39;103777;1280;100675;-75
2023/03/06 06:03:00;;;;;;;54.70;26.20;;;;;;;-3.87;84.53;99559.86;104036;1279;103873;-77
2023/03/06 06:05:45;;;;;;;65.20;29.70;;;;;;;-3.89;84.74;99558.61;103940;1280;100870;-75
2023/03/06 06:08:30;;;;;;;60.30;29.20;;;;;;;-3.91;85.10;99558.73;104156;1279;99469;-76
2023/03/06 06:11:17;;;;;;;56.50;28.60;;;;;;;-3.92;85.34;99563.31;103924;1279;100014;-75
2023/03/06 06:14:01;;;;;;;59.70;29.10;;;;;;;-3.93;85.48;99559.04;103982;1279;99486;-75
2023/03/06 06:16:46;;;;;;;60.10;30.50;;;;;;;-3.92;85.70;99556.07;103984;1274;102682;-75
2023/03/06 06:19:31;;;;;;;63.70;30.10;;;;;;;-3.91;86.18;99561.73;103990;1278;100361;-75
2023/03/06 06:22:16;;;;;;;64.70;29.80;;;;;;;-3.88;86.56;99564.08;103756;1281;99329;-76
2023/03/06 06:25:01;;;;;;;65.90;31.40;;;;;;;-3.81;86.83;99567.17;103733;1277;99406;-76
2023/03/06 06:27:46;;;;;;;54.20;27.70;;;;;;;-3.74;87.08;99564.39;103959;1274;99354;-76
2023/03/06 06:30:32;;;;;;;57.50;27.40;;;;;;;-3.68;87.36;99568.39;103899;1279;102875;-77
2023/03/06 06:33:17;;;;;;;58.60;28.40;;;;;;;-3.59;87.79;99562.28;103899;1279;99466;-76
2023/03/06 06:36:01;;;;;;;63.30;28.80;;;;;;;-3.49;88.18;99561.47;103962;1279;99486;-75
2023/03/06 06:38:47;;;;;;;57.90;26.90;;;;;;;-3.38;88.66;99560.52;104081;1277;99349;-75
2023/03/06 06:41:33;;;;;;;56.10;27.70;;;;;;;-3.27;89.05;99561.39;103986;1280;100821;-76
2023/03/06 06:44:18;;;;;;;57.60;28.50;;;;;;;-3.19;89.29;99557.55;103873;1277;103758;-75
2023/03/06 06:47:04;;;;;;;66.00;28.50;;;;;;;-3.10;89.44;99557.01;103845;1279;99753;-77
2023/03/06 06:49:51;;;;;;;57.70;28.30;;;;;;;-3.01;89.61;99557.87;103843;1277;99466;-78
2023/03/06 06:52:36;;;;;;;57.00;27.10;;;;;;;-2.93;89.78;99559.48;103804;1277;100589;-77
2023/03/06 06:55:21;;;;;;;48.30;23.80;;;;;;;-2.86;89.84;99557.60;104051;1280;99446;-76
2023/03/06 06:58:06;;;;;;;53.90;28.30;;;;;;;-2.79;90.10;99555.95;103953;1277;104455;-77
2023/03/06 07:00:50;;;;;;;59.10;28.40;;;;;;;-2.71;90.21;99555.69;103965;1277;99332;-76
2023/03/06 07:03:35;;;;;;;55.20;27.90;;;;;;;-2.63;90.26;99553.78;103909;1279;100019;-76
2023/03/06 07:06:21;;;;;;;55.40;26.80;;;;;;;-2.58;90.27;99555.78;103917;1278;99868;-75
2023/03/06 07:09:07;;;;;;;59.40;27.50;;;;;;;-2.55;90.11;99555.52;104711;1277;99434;-75
2023/03/06 07:11:51;;;;;;;51.10;25.90;;;;;;;-2.52;90.04;99553.35;104224;1277;102827;-75
2023/03/06 07:14:36;;;;;;;55.50;26.90;;;;;;;-2.48;90.13;99554.27;104202;1277;101473;-75
2023/03/06 07:17:21;;;;;;;60.30;29.40;;;;;;;-2.42;90.11;99551.06;104285;1277;99492;-75
2023/03/06 07:20:07;;;;;;;55.80;27.10;;;;;;;-2.34;90.21;99549.48;104224;1279;99249;-77
2023/03/06 07:22:52;;;;;;;59.50;27.10;;;;;;;-2.24;90.44;99550.42;105396;1277;99329;-81
2023/03/06 07:25:37;;;;;;;61.80;28.70;;;;;;;-2.14;90.62;99548.70;105466;1277;104139;-83
2023/03/06 07:28:23;;;;;;;60.50;29.00;;;;;;;-2.07;90.64;99544.17;105198;1277;101472;-83
2023/03/06 07:31:10;;;;;;;49.80;27.60;;;;;;;-1.99;90.66;99545.58;105408;1277;99274;-82
2023/03/06 07:33:55;;;;;;;60.20;29.40;;;;;;;-1.91;90.59;99544.03;104977;1282;99233;-83
2023/03/06 07:36:40;;;;;;;59.20;30.60;;;;;;;-1.83;90.79;99546.13;105214;1274;99157;-81
2023/03/06 07:39:26;;;;;;;60.20;30.60;;;;;;;-1.73;91.02;99543.30;105423;1274;104061;-80
2023/03/06 07:42:13;;;;;;;51.60;27.40;;;;;;;-1.64;91.10;99544.02;105403;1274;99261;-82
2023/03/06 07:45:05;;;;;;;57.00;29.10;;;;;;;-1.56;91.17;99541.38;105100;1274;99406;-81
2023/03/06 07:47:51;;;;;;;52.60;27.50;;;;;;;-1.46;91.27;99543.65;105232;1274;99297;-83
2023/03/06 07:50:37;;;;;;;54.60;28.60;;;;;;;-1.37;91.34;99542.99;104838;1274;99867;-79
2023/03/06 07:53:23;;;;;;;59.00;28.30;;;;;;;-1.29;91.38;99542.45;105183;1279;104079;-79
2023/03/06 07:56:10;;;;;;;59.30;29.70;;;;;;;-1.21;91.40;99543.33;104919;1279;99334;-80
2023/03/06 07:58:55;;;;;;;58.00;29.70;;;;;;;-1.13;91.46;99544.36;104441;1274;99451;-79
2023/03/06 08:01:40;;;;;;;57.50;28.80;;;;;;;-1.06;91.34;99543.89;104786;1279;99387;-80
2023/03/06 08:04:26;;;;;;;55.50;27.80;;;;;;;-0.99;91.40;99544.58;104726;1281;99861;-77
2023/03/06 08:07:11;;;;;;;53.90;26.30;;;;;;;-0.93;91.40;99542.66;104795;1274;102796;-83
2023/03/06 08:09:57;;;;;;;50.40;26.90;;;;;;;-0.88;91.42;99540.89;105604;1274;99897;-81
2023/03/06 08:12:41;;;;;;;52.10;26.90;;;;;;;-0.81;91.31;99536.82;104621;1276;99277;-80
2023/03/06 08:15:26;;;;;;;49.80;26.60;;;;;;;-0.74;91.39;99537.89;104830;1274;99389;-76
2023/03/06 08:18:11;;;;;;;53.20;26.20;;;;;;;-0.68;91.27;99536.98;104009;1274;99825;-76
2023/03/06 08:21:13;;;;;;;55.50;28.80;;;;;;;-0.63;91.30;99534.65;103904;1274;102699;-75
2023/03/06 08:23:58;;;;;;;52.60;27.50;;;;;;;-0.58;91.47;99528.16;104515;1279;99456;-77
2023/03/06 08:26:45;;;;;;;61.20;30.20;;;;;;;-0.52;91.54;99527.80;104658;1275;99418;-77
2023/03/06 08:29:30;;;;;;;62.40;30.50;;;;;;;-0.47;91.48;99526.59;104055;1280;99459;-80
2023/03/06 08:32:15;;;;;;;60.20;27.80;;;;;;;-0.42;91.48;99519.62;103957;1274;99889;-75
2023/03/06 08:35:02;;;;;;;59.20;27.80;;;;;;;-0.34;91.63;99522.45;103931;1279;102706;-75
2023/03/06 08:37:46;;;;;;;53.60;26.50;;;;;;;-0.28;91.60;99519.89;104213;1276;100505;-76
2023/03/06 08:40:31;;;;;;;51.10;26.60;;;;;;;-0.22;91.72;99517.89;103931;1279;99883;-73
2023/03/06 08:43:15;;;;;;;52.80;29.40;;;;;;;-0.17;91.81;99516.23;103928;1278;99340;-73
2023/03/06 08:46:01;;;;;;;55.10;27.70;;;;;;;-0.12;91.91;99515.05;103881;1277;99257;-73
2023/03/06 08:48:47;;;;;;;50.90;25.70;;;;;;;-0.07;91.95;99518.43;105172;1274;103674;-79
2023/03/06 08:51:32;;;;;;;49.70;24.50;;;;;;;-0.03;91.82;99516.80;104680;1274;100526;-85
2023/03/06 08:54:17;;;;;;;57.50;26.90;;;;;;;0.02;91.93;99516.14;104478;1279;99284;-82
2023/03/06 08:57:02;;;;;;;47.00;25.80;;;;;;;0.08;91.99;99518.25;105050;1279;99927;-85
2023/03/06 08:59:48;;;;;;;55.20;26.50;;;;;;;0.14;92.08;99519.92;104904;1277;99527;-79
2023/03/06 09:02:58;;;;;;;59.20;27.90;;;;;;;0.20;92.20;99518.59;104330;1274;106091;-77
2023/03/06 09:05:43;;;;;;;54.00;31.10;;;;;;;0.25;92.13;99517.29;103969;1278;100139;-76
2023/03/06 09:08:28;;;;;;;59.90;29.40;;;;;;;0.30;92.13;99518.02;103809;1277;100033;-77
2023/03/06 09:11:14;;;;;;;57.80;27.80;;;;;;;0.34;92.07;99513.02;105417;1278;99463;-77
2023/03/06 09:13:59;;;;;;;54.10;27.60;;;;;;;0.38;92.18;99510.36;104036;1280;99956;-77
2023/03/06 09:16:44;;;;;;;54.20;27.50;;;;;;;0.43;92.15;99514.73;104255;1279;103527;-80
2023/03/06 09:19:29;;;;;;;45.50;26.60;;;;;;;0.48;92.03;99515.48;104240;1280;100923;-77
2023/03/06 09:22:14;;;;;;;50.10;25.40;;;;;;;0.52;92.07;99512.98;104363;1277;100334;-76
2023/03/06 09:24:59;;;;;;;40.60;23.00;;;;;;;0.57;91.96;99518.44;104303;1277;99313;-76
2023/03/06 09:27:43;;;;;;;46.90;24.50;;;;;;;0.61;91.51;99520.71;103893;1280;99296;-76
2023/03/06 09:30:28;;;;;;;41.20;21.40;;;;;;;0.65;91.29;99522.04;104047;1280;102814;-76
2023/03/06 09:33:13;;;;;;;43.20;21.60;;;;;;;0.68;91.04;99521.38;103967;1287;100450;-76
2023/03/06 09:35:58;;;;;;;41.50;21.70;;;;;;;0.74;91.26;99519.58;103742;1276;99441;-76
2023/03/06 09:38:44;;;;;;;39.10;20.80;;;;;;;0.81;91.29;99520.14;103980;1279;99352;-77
2023/03/06 09:41:35;;;;;;;37.20;19.00;;;;;;;0.85;91.08;99514.27;103986;1279;99909;-76
2023/03/06 09:44:24;;;;;;;39.30;20.10;;;;;;;0.88;90.79;99517.11;105188;1277;103577;-78
2023/03/06 09:47:28;;;;;;;34.80;16.50;;;;;;;0.93;90.75;99518.80;104073;1277;101007;-76
2023/03/06 09:50:22;;;;;;;37.50;17.60;;;;;;;0.97;90.70;99513.92;103933;1278;99839;-77
2023/03/06 09:53:26;;;;;;;40.10;19.20;;;;;;;1.04;90.84;99506.73;103977;1278;99838;-78
2023/03/06 09:56:18;;;;;;;36.60;17.80;;;;;;;1.09;90.67;99502.25;103987;1279;101040;-77
2023/03/06 09:59:16;;;;;;;40.40;19.40;;;;;;;1.12;90.54;99502.47;104048;1280;102783;-77
2023/03/06 10:02:17;;;;;;;34.00;17.70;;;;;;;1.14;90.93;99494.45;104009;1280;100371;-76
2023/03/06 10:05:05;;;;;;;38.30;18.40;;;;;;;1.17;90.77;99492.59;104150;1277;99745;-76
2023/03/06 10:08:05;;;;;;;35.50;17.40;;;;;;;1.20;90.96;99496.17;104087;1277;99326;-77
2023/03/06 10:11:15;;;;;;;35.90;16.00;;;;;;;1.22;90.90;99496.26;104816;1279;101047;-77
2023/03/06 10:14:35;;;;;;;31.70;15.00;;;;;;;1.26;90.99;99495.23;104001;1277;104039;-77
2023/03/06 10:17:22;;;;;;;34.80;15.80;;;;;;;1.27;90.86;99492.93;103932;1277;100079;-77
2023/03/06 10:20:38;;;;;;;30.30;16.80;;;;;;;1.28;90.85;99489.73;103956;1279;99249;-76
2023/03/06 10:23:57;;;;;;;31.30;15.30;;;;;;;1.35;91.67;99486.81;103970;1277;99348;-77
2023/03/06 10:27:10;;;;;;;31.30;16.40;;;;;;;1.43;90.90;99485.84;103954;1279;99333;-77
2023/03/06 10:30:05;;;;;;;45.20;19.80;;;;;;;1.45;90.27;99477.24;103961;1276;104172;-77
2023/03/06 10:33:08;;;;;;;39.60;20.40;;;;;;;1.46;89.99;99471.86;104008;1280;100633;-76
2023/03/06 10:35:54;;;;;;;38.50;21.90;;;;;;;1.48;89.83;99467.92;103921;1280;100724;-76
2023/03/06 10:38:40;;;;;;;31.40;14.40;;;;;;;1.50;89.79;99467.48;103728;1279;99348;-77
2023/03/06 10:41:28;;;;;;;23.60;13.20;;;;;;;1.53;89.72;99465.77;103923;1280;99992;-78
2023/03/06 10:44:13;;;;;;;33.20;13.60;;;;;;;1.57;89.68;99460.85;104074;1279;102692;-76
2023/03/06 10:46:58;;;;;;;67.70;33.40;;;;;;;1.62;89.73;99461.96;103924;1279;100414;-85
2023/03/06 10:50:02;;;;;;;32.10;16.20;;;;;;;1.64;89.65;99458.94;103770;1283;99339;-76
2023/03/06 10:53:03;;;;;;;35.50;15.50;;;;;;;1.64;89.80;99458.08;104545;1277;99357;-74
2023/03/06 10:55:57;;;;;;;35.10;18.70;;;;;;;1.62;89.76;99457.38;105082;1277;99451;-84
2023/03/06 10:58:43;;;;;;;36.20;18.10;;;;;;;1.58;89.74;99454.20;104963;1279;104904;-82
2023/03/06 11:01:29;;;;;;;42.70;21.20;;;;;;;1.57;89.98;99450.63;105013;1276;101322;-81
2023/03/06 11:04:30;;;;;;;39.10;20.60;;;;;;;1.58;90.25;99447.52;105169;1276;99347;-82
2023/03/06 11:07:35;;;;;;;38.90;21.40;;;;;;;1.60;90.50;99445.72;105129;1276;99251;-81
2023/03/06 11:10:40;;;;;;;;;;;;;;;;;;;;;
2023/03/06 11:13:28;;;;;;;38.80;20.30;;;;;;;1.61;90.49;99431.60;104869;1279;104267;-83
2023/03/06 11:16:29;;;;;;;42.30;23.30;;;;;;;1.55;90.33;99427.60;104959;1274;99348;-86
2023/03/06 11:19:24;;;;;;;34.70;19.10;;;;;;;1.52;90.49;99425.60;104627;1274;99314;-89
2023/03/06 11:22:17;;;;;;;24.40;14.50;;;;;;;1.49;90.45;99421.06;104804;1274;99290;-77
2023/03/06 11:25:12;;;;;;;25.50;14.00;;;;;;;1.45;89.94;99417.75;103903;1279;99902;-77
2023/03/06 11:28:02;;;;;;;23.70;12.90;;;;;;;1.40;89.95;99412.41;105270;1274;102799;-82
2023/03/06 11:31:10;;;;;;;30.30;16.10;;;;;;;1.38;90.24;99409.50;104885;1280;99145;-82
2023/03/06 11:34:48;;;;;;;27.30;14.00;;;;;;;1.36;90.38;99401.69;105127;1276;99494;-83
2023/03/06 11:37:36;;;;;;;29.20;15.40;;;;;;;1.34;90.59;99397.94;104802;1279;99459;-82
2023/03/06 11:40:50;;;;;;;28.60;16.40;;;;;;;1.34;90.90;99393.55;105222;1274;100036;-81
2023/03/06 11:43:51;;;;;;;31.20;15.80;;;;;;;1.38;91.44;99394.72;105232;1278;102745;-81
2023/03/06 11:46:40;;;;;;;26.10;15.40;;;;;;;1.39;91.37;99392.55;105292;1280;99341;-84
2023/03/06 11:49:39;;;;;;;34.20;18.70;;;;;;;1.39;91.31;99387.08;105053;1277;99425;-80
2023/03/06 11:52:34;;;;;;;34.00;21.40;;;;;;;1.38;91.49;99385.35;104339;1274;99383;-80
2023/03/06 11:55:55;;;;;;;33.40;18.90;;;;;;;1.38;91.75;99388.03;105064;1274;99362;-82
2023/03/06 11:58:55;;;;;;;29.90;16.40;;;;;;;1.36;91.28;99384.06;104641;1279;103894;-76
2023/03/06 12:01:48;;;;;;;26.50;12.90;;;;;;;1.34;91.17;99378.52;104247;1280;99688;-74
2023/03/06 12:04:45;;;;;;;16.40;9.10;;;;;;;1.33;91.11;99378.39;104012;1279;99374;-74
2023/03/06 12:07:42;;;;;;;23.80;11.80;;;;;;;1.31;90.98;99373.81;104295;1280;99414;-82
2023/03/06 12:10:51;;;;;;;21.30;11.40;;;;;;;1.31;91.12;99372.63;104921;1274;100231;-82
2023/03/06 12:14:10;;;;;;;19.50;10.70;;;;;;;1.29;91.00;99372.27;104881;1279;104467;-85
2023/03/06 12:17:05;;;;;;;20.30;12.10;;;;;;;1.28;90.88;99366.77;104301;1280;100954;-78
2023/03/06 12:20:09;;;;;;;25.70;15.20;;;;;;;1.30;91.05;99360.95;104487;1279;99699;-76
2023/03/06 12:23:05;;;;;;;26.00;16.40;;;;;;;1.32;91.28;99357.39;104105;1276;100614;-76
2023/03/06 12:25:59;;;;;;;37.60;23.90;;;;;;;1.31;91.32;99350.95;104068;1279;99400;-76
2023/03/06 12:28:53;;;;;;;27.30;14.30;;;;;;;1.31;91.35;99345.23;103969;1279;103995;-85
2023/03/06 12:31:47;;;;;;;27.00;13.60;;;;;;;1.28;91.41;99350.42;104338;1280;100652;-74
2023/03/06 12:34:38;;;;;;;23.20;13.50;;;;;;;1.27;91.51;99352.96;104301;1275;99363;-75
2023/03/06 12:37:56;;;;;;;;;;;;;;;1.26;91.47;99347.24;104326;1279;99440;-75
2023/03/06 12:41:14;;;;;;;37.20;23.80;;;;;;;1.25;91.64;99344.19;103733;1286;99331;-84
2023/03/06 12:44:02;;;;;;;29.70;17.10;;;;;;;1.23;91.51;99351.82;104782;1280;103936;-82
2023/03/06 12:46:58;;;;;;;113.00;54.90;;;;;;;1.18;91.52;99351.50;104478;1278;99265;-76